Terminal Aerodrome Forecast
Issued by NWS

Home | Current Version | Previous Version | Text Only | Print | Product List | Glossary On
Versions: 1 2 3 4 5 6 7 8 9 10 11 12 13 14 15 16 17 18 19
000
FTUS46 KMTR 242352
TAFOAK
TAF
KOAK 242352Z 2500/2606 26013KT P6SM BKN022
      TEMPO 2502/2506 SCT022
     FM250600 26008KT P6SM OVC015
     FM251800 25011KT P6SM SCT020 SCT040
     FM252000 27015G22KT P6SM SCT050
     FM260300 27011KT P6SM SCT020=

USA.gov is the U.S. government's official web portal to all federal, state and local government web resources and services.